sensor_id;sensor_type;location;lat;lon;timestamp;P1;durP1;ratioP1;P2;durP2;ratioP2
6987;SDS011;3534;49.960;8.018;2023-05-14T00:01:01;8.00;;;4.77;;
6987;SDS011;3534;49.960;8.018;2023-05-14T00:03:27;9.53;;;5.00;;
6987;SDS011;3534;49.960;8.018;2023-05-14T00:05:54;7.77;;;4.00;;
6987;SDS011;3534;49.960;8.018;2023-05-14T00:08:22;6.90;;;5.80;;
6987;SDS011;3534;49.960;8.018;2023-05-14T00:10:48;14.00;;;4.63;;
6987;SDS011;3534;49.960;8.018;2023-05-14T00:13:15;6.80;;;4.83;;
6987;SDS011;3534;49.960;8.018;2023-05-14T00:15:43;5.93;;;4.70;;
6987;SDS011;3534;49.960;8.018;2023-05-14T00:18:10;10.63;;;4.73;;
6987;SDS011;3534;49.960;8.018;2023-05-14T00:20:37;7.17;;;4.73;;
6987;SDS011;3534;49.960;8.018;2023-05-14T00:23:03;5.67;;;4.70;;
6987;SDS011;3534;49.960;8.018;2023-05-14T00:25:30;5.70;;;4.90;;
6987;SDS011;3534;49.960;8.018;2023-05-14T00:27:57;9.00;;;5.60;;
6987;SDS011;3534;49.960;8.018;2023-05-14T00:30:24;15.27;;;4.63;;
6987;SDS011;3534;49.960;8.018;2023-05-14T00:32:52;4.60;;;4.00;;
6987;SDS011;3534;49.960;8.018;2023-05-14T00:35:18;6.40;;;4.70;;
6987;SDS011;3534;49.960;8.018;2023-05-14T00:37:46;6.97;;;4.60;;
6987;SDS011;3534;49.960;8.018;2023-05-14T00:40:12;6.63;;;4.43;;
6987;SDS011;3534;49.960;8.018;2023-05-14T00:42:39;4.73;;;4.33;;
6987;SDS011;3534;49.960;8.018;2023-05-14T00:45:06;5.53;;;4.87;;
6987;SDS011;3534;49.960;8.018;2023-05-14T00:47:34;4.93;;;4.53;;
6987;SDS011;3534;49.960;8.018;2023-05-14T00:50:02;4.70;;;4.30;;
6987;SDS011;3534;49.960;8.018;2023-05-14T00:52:30;10.37;;;4.00;;
6987;SDS011;3534;49.960;8.018;2023-05-14T00:54:57;5.23;;;4.70;;
6987;SDS011;3534;49.960;8.018;2023-05-14T00:57:24;6.40;;;4.57;;
6987;SDS011;3534;49.960;8.018;2023-05-14T00:59:51;5.03;;;4.53;;
6987;SDS011;3534;49.960;8.018;2023-05-14T01:02:18;5.00;;;4.50;;
6987;SDS011;3534;49.960;8.018;2023-05-14T01:04:45;14.50;;;4.60;;
6987;SDS011;3534;49.960;8.018;2023-05-14T01:07:15;6.87;;;4.87;;
6987;SDS011;3534;49.960;8.018;2023-05-14T01:09:47;7.00;;;4.73;;
6987;SDS011;3534;49.960;8.018;2023-05-14T01:12:20;7.73;;;4.53;;
6987;SDS011;3534;49.960;8.018;2023-05-14T01:14:56;11.50;;;5.07;;
6987;SDS011;3534;49.960;8.018;2023-05-14T01:17:28;4.77;;;4.30;;
6987;SDS011;3534;49.960;8.018;2023-05-14T01:19:58;13.03;;;4.87;;
6987;SDS011;3534;49.960;8.018;2023-05-14T01:22:27;5.13;;;4.63;;
6987;SDS011;3534;49.960;8.018;2023-05-14T01:24:53;4.20;;;3.80;;
6987;SDS011;3534;49.960;8.018;2023-05-14T01:27:21;7.83;;;4.80;;
6987;SDS011;3534;49.960;8.018;2023-05-14T01:32:39;6.90;;;4.80;;
6987;SDS011;3534;49.960;8.018;2023-05-14T01:35:08;5.20;;;4.03;;
6987;SDS011;3534;49.960;8.018;2023-05-14T01:37:37;4.30;;;3.90;;
6987;SDS011;3534;49.960;8.018;2023-05-14T01:40:05;5.27;;;4.47;;
6987;SDS011;3534;49.960;8.018;2023-05-14T01:42:33;5.13;;;4.60;;
6987;SDS011;3534;49.960;8.018;2023-05-14T01:45:00;5.20;;;4.70;;
6987;SDS011;3534;49.960;8.018;2023-05-14T01:47:27;5.23;;;4.73;;
6987;SDS011;3534;49.960;8.018;2023-05-14T01:49:53;4.50;;;4.10;;
6987;SDS011;3534;49.960;8.018;2023-05-14T01:52:20;9.40;;;4.97;;
6987;SDS011;3534;49.960;8.018;2023-05-14T01:54:48;5.03;;;4.33;;
6987;SDS011;3534;49.960;8.018;2023-05-14T01:57:15;4.60;;;4.20;;
6987;SDS011;3534;49.960;8.018;2023-05-14T01:59:42;4.83;;;4.33;;
6987;SDS011;3534;49.960;8.018;2023-05-14T02:02:08;5.10;;;4.60;;
6987;SDS011;3534;49.960;8.018;2023-05-14T02:04:35;5.17;;;4.53;;
6987;SDS011;3534;49.960;8.018;2023-05-14T02:07:02;11.67;;;4.53;;
6987;SDS011;3534;49.960;8.018;2023-05-14T02:09:28;5.27;;;4.80;;
6987;SDS011;3534;49.960;8.018;2023-05-14T02:11:56;8.00;;;5.17;;
6987;SDS011;3534;49.960;8.018;2023-05-14T02:14:23;5.43;;;4.50;;
6987;SDS011;3534;49.960;8.018;2023-05-14T02:16:50;7.87;;;4.60;;
6987;SDS011;3534;49.960;8.018;2023-05-14T02:19:16;5.60;;;4.13;;
6987;SDS011;3534;49.960;8.018;2023-05-14T02:21:43;4.20;;;3.80;;
6987;SDS011;3534;49.960;8.018;2023-05-14T02:24:10;4.20;;;3.83;;
6987;SDS011;3534;49.960;8.018;2023-05-14T02:26:36;5.23;;;3.80;;
6987;SDS011;3534;49.960;8.018;2023-05-14T02:29:04;4.50;;;4.10;;
6987;SDS011;3534;49.960;8.018;2023-05-14T02:31:31;5.50;;;3.70;;
6987;SDS011;3534;49.960;8.018;2023-05-14T02:33:59;6.20;;;4.40;;
6987;SDS011;3534;49.960;8.018;2023-05-14T02:36:26;4.43;;;4.03;;
6987;SDS011;3534;49.960;8.018;2023-05-14T02:38:53;4.97;;;4.20;;
6987;SDS011;3534;49.960;8.018;2023-05-14T02:41:19;4.83;;;4.20;;
6987;SDS011;3534;49.960;8.018;2023-05-14T02:43:46;5.27;;;4.53;;
6987;SDS011;3534;49.960;8.018;2023-05-14T02:46:14;5.53;;;4.13;;
6987;SDS011;3534;49.960;8.018;2023-05-14T02:48:41;4.40;;;4.00;;
6987;SDS011;3534;49.960;8.018;2023-05-14T02:51:07;4.13;;;3.73;;
6987;SDS011;3534;49.960;8.018;2023-05-14T02:53:34;5.67;;;4.20;;
6987;SDS011;3534;49.960;8.018;2023-05-14T02:56:01;4.87;;;3.90;;
6987;SDS011;3534;49.960;8.018;2023-05-14T02:58:27;4.93;;;3.57;;
6987;SDS011;3534;49.960;8.018;2023-05-14T03:00:54;4.10;;;3.70;;
6987;SDS011;3534;49.960;8.018;2023-05-14T03:03:22;3.90;;;3.60;;
6987;SDS011;3534;49.960;8.018;2023-05-14T03:05:49;4.50;;;4.10;;
6987;SDS011;3534;49.960;8.018;2023-05-14T03:08:16;4.40;;;4.00;;
6987;SDS011;3534;49.960;8.018;2023-05-14T03:10:43;4.50;;;4.00;;
6987;SDS011;3534;49.960;8.018;2023-05-14T03:13:09;4.80;;;4.40;;
6987;SDS011;3534;49.960;8.018;2023-05-14T03:15:36;5.90;;;4.10;;
6987;SDS011;3534;49.960;8.018;2023-05-14T03:18:03;4.33;;;3.93;;
6987;SDS011;3534;49.960;8.018;2023-05-14T03:20:32;4.40;;;3.77;;
6987;SDS011;3534;49.960;8.018;2023-05-14T03:22:58;6.90;;;4.40;;
6987;SDS011;3534;49.960;8.018;2023-05-14T03:25:25;4.33;;;3.93;;
6987;SDS011;3534;49.960;8.018;2023-05-14T03:27:52;3.90;;;3.60;;
6987;SDS011;3534;49.960;8.018;2023-05-14T03:30:18;5.20;;;4.10;;
6987;SDS011;3534;49.960;8.018;2023-05-14T03:32:45;4.60;;;4.00;;
6987;SDS011;3534;49.960;8.018;2023-05-14T03:35:12;3.93;;;3.63;;
6987;SDS011;3534;49.960;8.018;2023-05-14T03:37:40;8.00;;;4.40;;
6987;SDS011;3534;49.960;8.018;2023-05-14T03:40:07;4.87;;;4.37;;
6987;SDS011;3534;49.960;8.018;2023-05-14T03:42:34;4.50;;;4.10;;
6987;SDS011;3534;49.960;8.018;2023-05-14T03:45:00;4.23;;;3.93;;
6987;SDS011;3534;49.960;8.018;2023-05-14T03:47:27;6.50;;;4.20;;
6987;SDS011;3534;49.960;8.018;2023-05-14T03:49:54;5.77;;;4.17;;
6987;SDS011;3534;49.960;8.018;2023-05-14T03:52:21;7.10;;;4.47;;
6987;SDS011;3534;49.960;8.018;2023-05-14T03:54:49;4.77;;;4.20;;
6987;SDS011;3534;49.960;8.018;2023-05-14T03:57:16;5.23;;;4.40;;
6987;SDS011;3534;49.960;8.018;2023-05-14T03:59:43;6.97;;;4.63;;
6987;SDS011;3534;49.960;8.018;2023-05-14T04:02:09;7.63;;;4.40;;
6987;SDS011;3534;49.960;8.018;2023-05-14T04:04:36;4.00;;;3.70;;
6987;SDS011;3534;49.960;8.018;2023-05-14T04:07:03;4.27;;;3.90;;
6987;SDS011;3534;49.960;8.018;2023-05-14T04:09:30;4.80;;;4.40;;
6987;SDS011;3534;49.960;8.018;2023-05-14T04:11:58;5.57;;;4.10;;
6987;SDS011;3534;49.960;8.018;2023-05-14T04:14:24;4.87;;;4.40;;
6987;SDS011;3534;49.960;8.018;2023-05-14T04:16:51;6.73;;;4.50;;
6987;SDS011;3534;49.960;8.018;2023-05-14T04:19:18;4.60;;;4.20;;
6987;SDS011;3534;49.960;8.018;2023-05-14T04:21:44;5.30;;;4.80;;
6987;SDS011;3534;49.960;8.018;2023-05-14T04:24:11;5.10;;;4.40;;
6987;SDS011;3534;49.960;8.018;2023-05-14T04:26:38;5.03;;;3.80;;
6987;SDS011;3534;49.960;8.018;2023-05-14T04:29:06;4.20;;;3.80;;
6987;SDS011;3534;49.960;8.018;2023-05-14T04:31:32;4.73;;;4.10;;
6987;SDS011;3534;49.960;8.018;2023-05-14T04:33:59;11.23;;;4.00;;
6987;SDS011;3534;49.960;8.018;2023-05-14T04:36:26;6.40;;;3.90;;
6987;SDS011;3534;49.960;8.018;2023-05-14T04:38:52;4.60;;;4.20;;
6987;SDS011;3534;49.960;8.018;2023-05-14T04:41:20;5.93;;;4.40;;
6987;SDS011;3534;49.960;8.018;2023-05-14T04:43:48;11.00;;;5.00;;
6987;SDS011;3534;49.960;8.018;2023-05-14T04:46:16;5.73;;;4.57;;
6987;SDS011;3534;49.960;8.018;2023-05-14T04:48:43;6.47;;;4.60;;
6987;SDS011;3534;49.960;8.018;2023-05-14T04:51:10;4.90;;;4.50;;
6987;SDS011;3534;49.960;8.018;2023-05-14T04:53:37;5.20;;;4.40;;
6987;SDS011;3534;49.960;8.018;2023-05-14T04:56:03;9.53;;;4.60;;
6987;SDS011;3534;49.960;8.018;2023-05-14T04:58:30;4.90;;;4.50;;
6987;SDS011;3534;49.960;8.018;2023-05-14T05:00:57;5.07;;;4.30;;
6987;SDS011;3534;49.960;8.018;2023-05-14T05:03:25;8.17;;;4.30;;
6987;SDS011;3534;49.960;8.018;2023-05-14T05:05:52;5.23;;;4.73;;
6987;SDS011;3534;49.960;8.018;2023-05-14T05:08:18;5.50;;;4.80;;
6987;SDS011;3534;49.960;8.018;2023-05-14T05:10:45;5.60;;;4.33;;
6987;SDS011;3534;49.960;8.018;2023-05-14T05:13:12;5.23;;;4.73;;
6987;SDS011;3534;49.960;8.018;2023-05-14T05:15:40;5.03;;;4.63;;
6987;SDS011;3534;49.960;8.018;2023-05-14T05:18:07;8.43;;;5.13;;
6987;SDS011;3534;49.960;8.018;2023-05-14T05:20:35;9.20;;;5.57;;
6987;SDS011;3534;49.960;8.018;2023-05-14T05:23:02;5.73;;;5.10;;
6987;SDS011;3534;49.960;8.018;2023-05-14T05:25:29;5.27;;;4.77;;
6987;SDS011;3534;49.960;8.018;2023-05-14T05:27:55;8.20;;;5.70;;
6987;SDS011;3534;49.960;8.018;2023-05-14T05:30:22;6.00;;;5.33;;
6987;SDS011;3534;49.960;8.018;2023-05-14T05:32:49;5.90;;;5.30;;
6987;SDS011;3534;49.960;8.018;2023-05-14T05:35:15;6.40;;;5.80;;
6987;SDS011;3534;49.960;8.018;2023-05-14T05:37:43;6.60;;;5.87;;
6987;SDS011;3534;49.960;8.018;2023-05-14T05:40:10;6.07;;;5.47;;
6987;SDS011;3534;49.960;8.018;2023-05-14T05:42:38;9.07;;;6.10;;
6987;SDS011;3534;49.960;8.018;2023-05-14T05:45:05;8.10;;;5.63;;
6987;SDS011;3534;49.960;8.018;2023-05-14T05:47:32;9.90;;;6.40;;
6987;SDS011;3534;49.960;8.018;2023-05-14T05:49:59;7.63;;;5.50;;
6987;SDS011;3534;49.960;8.018;2023-05-14T05:52:26;6.33;;;5.73;;
6987;SDS011;3534;49.960;8.018;2023-05-14T05:54:54;7.30;;;5.73;;
6987;SDS011;3534;49.960;8.018;2023-05-14T05:57:21;6.60;;;5.60;;
6987;SDS011;3534;49.960;8.018;2023-05-14T05:59:48;7.27;;;6.03;;
6987;SDS011;3534;49.960;8.018;2023-05-14T06:02:14;8.90;;;5.33;;
6987;SDS011;3534;49.960;8.018;2023-05-14T06:04:41;5.63;;;5.07;;
6987;SDS011;3534;49.960;8.018;2023-05-14T06:07:08;7.50;;;5.40;;
6987;SDS011;3534;49.960;8.018;2023-05-14T06:09:34;8.23;;;5.90;;
6987;SDS011;3534;49.960;8.018;2023-05-14T06:12:03;6.30;;;4.80;;
6987;SDS011;3534;49.960;8.018;2023-05-14T06:14:30;5.93;;;5.30;;
6987;SDS011;3534;49.960;8.018;2023-05-14T06:16:57;6.60;;;5.70;;
6987;SDS011;3534;49.960;8.018;2023-05-14T06:19:23;9.10;;;6.20;;
6987;SDS011;3534;49.960;8.018;2023-05-14T06:21:50;5.73;;;5.13;;
6987;SDS011;3534;49.960;8.018;2023-05-14T06:24:17;6.53;;;5.77;;
6987;SDS011;3534;49.960;8.018;2023-05-14T06:26:44;10.03;;;5.30;;
6987;SDS011;3534;49.960;8.018;2023-05-14T06:29:12;6.70;;;5.37;;
6987;SDS011;3534;49.960;8.018;2023-05-14T06:31:38;6.87;;;4.70;;
6987;SDS011;3534;49.960;8.018;2023-05-14T06:34:05;6.37;;;5.70;;
6987;SDS011;3534;49.960;8.018;2023-05-14T06:36:33;6.57;;;5.93;;
6987;SDS011;3534;49.960;8.018;2023-05-14T06:38:59;5.87;;;5.37;;
6987;SDS011;3534;49.960;8.018;2023-05-14T06:41:27;6.63;;;6.03;;
6987;SDS011;3534;49.960;8.018;2023-05-14T06:43:54;8.27;;;4.83;;
6987;SDS011;3534;49.960;8.018;2023-05-14T06:46:22;5.97;;;5.47;;
6987;SDS011;3534;49.960;8.018;2023-05-14T06:48:49;5.23;;;4.83;;
6987;SDS011;3534;49.960;8.018;2023-05-14T06:51:15;7.37;;;4.50;;
6987;SDS011;3534;49.960;8.018;2023-05-14T06:53:42;5.30;;;4.80;;
6987;SDS011;3534;49.960;8.018;2023-05-14T06:56:09;6.60;;;5.03;;
6987;SDS011;3534;49.960;8.018;2023-05-14T06:58:36;5.70;;;4.93;;
6987;SDS011;3534;49.960;8.018;2023-05-14T07:01:03;5.00;;;4.37;;
6987;SDS011;3534;49.960;8.018;2023-05-14T07:03:31;4.60;;;3.60;;
6987;SDS011;3534;49.960;8.018;2023-05-14T07:05:58;5.60;;;5.00;;
6987;SDS011;3534;49.960;8.018;2023-05-14T07:08:25;7.23;;;4.90;;
6987;SDS011;3534;49.960;8.018;2023-05-14T07:10:51;5.40;;;4.73;;
6987;SDS011;3534;49.960;8.018;2023-05-14T07:13:18;6.10;;;5.50;;
6987;SDS011;3534;49.960;8.018;2023-05-14T07:15:44;7.30;;;5.57;;
6987;SDS011;3534;49.960;8.018;2023-05-14T07:18:11;6.07;;;5.47;;
6987;SDS011;3534;49.960;8.018;2023-05-14T07:20:39;12.47;;;4.90;;
6987;SDS011;3534;49.960;8.018;2023-05-14T07:23:06;5.77;;;4.67;;
6987;SDS011;3534;49.960;8.018;2023-05-14T07:25:32;6.03;;;4.87;;
6987;SDS011;3534;49.960;8.018;2023-05-14T07:27:59;6.63;;;4.87;;
6987;SDS011;3534;49.960;8.018;2023-05-14T07:30:26;9.17;;;6.37;;
6987;SDS011;3534;49.960;8.018;2023-05-14T07:32:53;6.87;;;5.30;;
6987;SDS011;3534;49.960;8.018;2023-05-14T07:35:20;10.50;;;4.53;;
6987;SDS011;3534;49.960;8.018;2023-05-14T07:37:49;5.97;;;4.97;;
6987;SDS011;3534;49.960;8.018;2023-05-14T07:40:16;6.50;;;4.80;;
6987;SDS011;3534;49.960;8.018;2023-05-14T07:42:42;5.77;;;5.17;;
6987;SDS011;3534;49.960;8.018;2023-05-14T07:45:09;7.10;;;4.90;;
6987;SDS011;3534;49.960;8.018;2023-05-14T07:47:36;5.03;;;4.53;;
6987;SDS011;3534;49.960;8.018;2023-05-14T07:50:04;8.93;;;5.73;;
6987;SDS011;3534;49.960;8.018;2023-05-14T07:52:31;5.40;;;4.90;;
6987;SDS011;3534;49.960;8.018;2023-05-14T07:55:01;5.00;;;4.60;;
6987;SDS011;3534;49.960;8.018;2023-05-14T07:57:28;4.73;;;4.23;;
6987;SDS011;3534;49.960;8.018;2023-05-14T07:59:55;5.63;;;4.57;;
6987;SDS011;3534;49.960;8.018;2023-05-14T08:02:21;4.83;;;4.33;;
6987;SDS011;3534;49.960;8.018;2023-05-14T08:04:48;4.23;;;3.83;;
6987;SDS011;3534;49.960;8.018;2023-05-14T08:07:15;3.97;;;3.40;;
6987;SDS011;3534;49.960;8.018;2023-05-14T08:09:41;6.33;;;4.13;;
6987;SDS011;3534;49.960;8.018;2023-05-14T08:12:09;4.27;;;3.73;;
6987;SDS011;3534;49.960;8.018;2023-05-14T08:14:36;5.73;;;4.30;;
6987;SDS011;3534;49.960;8.018;2023-05-14T08:17:03;6.40;;;3.97;;
6987;SDS011;3534;49.960;8.018;2023-05-14T08:19:30;4.53;;;3.63;;
6987;SDS011;3534;49.960;8.018;2023-05-14T08:21:57;3.70;;;3.30;;
6987;SDS011;3534;49.960;8.018;2023-05-14T08:24:24;4.57;;;3.87;;
6987;SDS011;3534;49.960;8.018;2023-05-14T08:26:51;3.67;;;3.37;;
6987;SDS011;3534;49.960;8.018;2023-05-14T08:29:19;6.40;;;3.33;;
6987;SDS011;3534;49.960;8.018;2023-05-14T08:31:45;4.13;;;3.30;;
6987;SDS011;3534;49.960;8.018;2023-05-14T08:34:13;3.53;;;3.23;;
6987;SDS011;3534;49.960;8.018;2023-05-14T08:36:39;4.00;;;2.63;;
6987;SDS011;3534;49.960;8.018;2023-05-14T08:39:06;3.10;;;2.83;;
6987;SDS011;3534;49.960;8.018;2023-05-14T08:41:33;3.10;;;2.80;;
6987;SDS011;3534;49.960;8.018;2023-05-14T08:44:02;4.67;;;3.03;;
6987;SDS011;3534;49.960;8.018;2023-05-14T08:46:34;3.40;;;3.10;;
6987;SDS011;3534;49.960;8.018;2023-05-14T08:49:04;3.37;;;2.93;;
6987;SDS011;3534;49.960;8.018;2023-05-14T08:51:36;3.07;;;2.70;;
6987;SDS011;3534;49.960;8.018;2023-05-14T08:54:04;3.00;;;2.80;;
6987;SDS011;3534;49.960;8.018;2023-05-14T08:56:31;3.30;;;2.97;;
6987;SDS011;3534;49.960;8.018;2023-05-14T08:58:58;3.20;;;2.90;;
6987;SDS011;3534;49.960;8.018;2023-05-14T09:04:36;6.83;;;2.50;;
6987;SDS011;3534;49.960;8.018;2023-05-14T09:07:05;3.60;;;3.30;;
6987;SDS011;3534;49.960;8.018;2023-05-14T09:09:32;2.70;;;2.50;;
6987;SDS011;3534;49.960;8.018;2023-05-14T09:11:59;3.87;;;3.10;;
6987;SDS011;3534;49.960;8.018;2023-05-14T09:14:26;5.00;;;3.00;;
6987;SDS011;3534;49.960;8.018;2023-05-14T09:16:54;3.87;;;3.00;;
6987;SDS011;3534;49.960;8.018;2023-05-14T09:19:21;3.07;;;2.83;;
6987;SDS011;3534;49.960;8.018;2023-05-14T09:21:48;3.23;;;3.03;;
6987;SDS011;3534;49.960;8.018;2023-05-14T09:24:18;5.50;;;3.43;;
6987;SDS011;3534;49.960;8.018;2023-05-14T09:26:48;3.83;;;2.83;;
6987;SDS011;3534;49.960;8.018;2023-05-14T09:29:16;3.67;;;2.50;;
6987;SDS011;3534;49.960;8.018;2023-05-14T09:31:43;2.97;;;2.77;;
6987;SDS011;3534;49.960;8.018;2023-05-14T09:34:11;2.97;;;2.67;;
6987;SDS011;3534;49.960;8.018;2023-05-14T09:36:49;2.57;;;2.10;;
6987;SDS011;3534;49.960;8.018;2023-05-14T09:39:19;3.63;;;2.20;;
6987;SDS011;3534;49.960;8.018;2023-05-14T09:41:46;4.20;;;3.00;;
6987;SDS011;3534;49.960;8.018;2023-05-14T09:44:12;2.90;;;2.50;;
6987;SDS011;3534;49.960;8.018;2023-05-14T09:46:40;3.10;;;2.40;;
6987;SDS011;3534;49.960;8.018;2023-05-14T09:49:06;3.37;;;2.83;;
6987;SDS011;3534;49.960;8.018;2023-05-14T09:51:34;2.87;;;2.67;;
6987;SDS011;3534;49.960;8.018;2023-05-14T09:54:03;4.57;;;2.90;;
6987;SDS011;3534;49.960;8.018;2023-05-14T09:56:30;2.57;;;2.37;;
6987;SDS011;3534;49.960;8.018;2023-05-14T09:58:57;3.00;;;2.67;;
6987;SDS011;3534;49.960;8.018;2023-05-14T10:01:24;2.63;;;2.43;;
6987;SDS011;3534;49.960;8.018;2023-05-14T10:03:51;8.53;;;7.83;;
6987;SDS011;3534;49.960;8.018;2023-05-14T10:06:21;2.90;;;2.70;;
6987;SDS011;3534;49.960;8.018;2023-05-14T10:08:53;3.07;;;2.77;;
6987;SDS011;3534;49.960;8.018;2023-05-14T10:11:22;2.67;;;2.47;;
6987;SDS011;3534;49.960;8.018;2023-05-14T10:13:52;2.90;;;2.60;;
6987;SDS011;3534;49.960;8.018;2023-05-14T10:16:26;4.17;;;2.83;;
6987;SDS011;3534;49.960;8.018;2023-05-14T10:18:59;2.97;;;2.67;;
6987;SDS011;3534;49.960;8.018;2023-05-14T10:21:30;3.33;;;3.03;;
6987;SDS011;3534;49.960;8.018;2023-05-14T10:24:02;5.23;;;2.50;;
6987;SDS011;3534;49.960;8.018;2023-05-14T10:26:29;2.80;;;2.60;;
6987;SDS011;3534;49.960;8.018;2023-05-14T10:28:57;3.00;;;2.57;;
6987;SDS011;3534;49.960;8.018;2023-05-14T10:34:29;3.03;;;2.80;;
6987;SDS011;3534;49.960;8.018;2023-05-14T10:36:58;3.33;;;2.33;;
6987;SDS011;3534;49.960;8.018;2023-05-14T10:39:40;2.40;;;2.20;;
6987;SDS011;3534;49.960;8.018;2023-05-14T10:42:07;3.30;;;2.60;;
6987;SDS011;3534;49.960;8.018;2023-05-14T10:44:36;2.87;;;2.57;;
6987;SDS011;3534;49.960;8.018;2023-05-14T10:47:08;2.90;;;2.30;;
6987;SDS011;3534;49.960;8.018;2023-05-14T10:49:34;2.40;;;2.20;;
6987;SDS011;3534;49.960;8.018;2023-05-14T10:52:01;2.47;;;2.27;;
6987;SDS011;3534;49.960;8.018;2023-05-14T10:54:28;2.37;;;2.17;;
6987;SDS011;3534;49.960;8.018;2023-05-14T10:56:58;3.17;;;2.50;;
6987;SDS011;3534;49.960;8.018;2023-05-14T10:59:26;3.10;;;2.80;;
6987;SDS011;3534;49.960;8.018;2023-05-14T11:01:52;2.97;;;2.77;;
6987;SDS011;3534;49.960;8.018;2023-05-14T11:04:21;2.70;;;2.50;;
6987;SDS011;3534;49.960;8.018;2023-05-14T11:06:48;2.20;;;2.00;;
6987;SDS011;3534;49.960;8.018;2023-05-14T11:09:18;3.33;;;2.30;;
6987;SDS011;3534;49.960;8.018;2023-05-14T11:11:46;4.33;;;2.37;;
6987;SDS011;3534;49.960;8.018;2023-05-14T11:14:14;2.60;;;2.40;;
6987;SDS011;3534;49.960;8.018;2023-05-14T11:16:41;2.60;;;2.40;;
6987;SDS011;3534;49.960;8.018;2023-05-14T11:19:08;2.60;;;2.40;;
6987;SDS011;3534;49.960;8.018;2023-05-14T11:21:36;2.80;;;2.10;;
6987;SDS011;3534;49.960;8.018;2023-05-14T11:24:03;2.70;;;2.20;;
6987;SDS011;3534;49.960;8.018;2023-05-14T11:26:31;2.70;;;2.50;;
6987;SDS011;3534;49.960;8.018;2023-05-14T11:28:58;2.23;;;2.03;;
6987;SDS011;3534;49.960;8.018;2023-05-14T11:31:26;2.80;;;2.47;;
6987;SDS011;3534;49.960;8.018;2023-05-14T11:33:53;2.37;;;2.17;;
6987;SDS011;3534;49.960;8.018;2023-05-14T11:36:20;2.47;;;2.10;;
6987;SDS011;3534;49.960;8.018;2023-05-14T11:38:47;2.60;;;2.40;;
6987;SDS011;3534;49.960;8.018;2023-05-14T11:41:16;2.40;;;2.20;;
6987;SDS011;3534;49.960;8.018;2023-05-14T11:43:44;3.47;;;2.50;;
6987;SDS011;3534;49.960;8.018;2023-05-14T11:46:15;2.73;;;2.10;;
6987;SDS011;3534;49.960;8.018;2023-05-14T11:48:44;2.77;;;2.50;;
6987;SDS011;3534;49.960;8.018;2023-05-14T11:51:11;2.60;;;2.40;;
6987;SDS011;3534;49.960;8.018;2023-05-14T11:53:38;3.00;;;2.50;;
6987;SDS011;3534;49.960;8.018;2023-05-14T11:56:04;3.03;;;2.20;;
6987;SDS011;3534;49.960;8.018;2023-05-14T11:58:31;2.50;;;2.10;;
6987;SDS011;3534;49.960;8.018;2023-05-14T12:00:58;2.53;;;2.20;;
6987;SDS011;3534;49.960;8.018;2023-05-14T12:03:25;2.53;;;2.33;;
6987;SDS011;3534;49.960;8.018;2023-05-14T12:05:55;2.33;;;2.13;;
6987;SDS011;3534;49.960;8.018;2023-05-14T12:08:24;3.33;;;2.57;;
6987;SDS011;3534;49.960;8.018;2023-05-14T12:10:52;2.57;;;2.37;;
6987;SDS011;3534;49.960;8.018;2023-05-14T12:13:19;5.07;;;2.70;;
6987;SDS011;3534;49.960;8.018;2023-05-14T12:15:45;2.00;;;1.80;;
6987;SDS011;3534;49.960;8.018;2023-05-14T12:18:13;2.70;;;2.50;;
6987;SDS011;3534;49.960;8.018;2023-05-14T12:20:45;2.47;;;2.20;;
6987;SDS011;3534;49.960;8.018;2023-05-14T12:23:13;2.43;;;2.13;;
6987;SDS011;3534;49.960;8.018;2023-05-14T12:25:48;2.40;;;2.20;;
6987;SDS011;3534;49.960;8.018;2023-05-14T12:28:15;2.10;;;1.90;;
6987;SDS011;3534;49.960;8.018;2023-05-14T12:30:42;1.73;;;1.63;;
6987;SDS011;3534;49.960;8.018;2023-05-14T12:33:09;2.50;;;1.70;;
6987;SDS011;3534;49.960;8.018;2023-05-14T12:35:36;2.93;;;2.03;;
6987;SDS011;3534;49.960;8.018;2023-05-14T12:38:02;2.23;;;1.70;;
6987;SDS011;3534;49.960;8.018;2023-05-14T12:40:31;2.10;;;1.90;;
6987;SDS011;3534;49.960;8.018;2023-05-14T12:42:57;1.97;;;1.87;;
6987;SDS011;3534;49.960;8.018;2023-05-14T12:45:24;2.70;;;2.00;;
6987;SDS011;3534;49.960;8.018;2023-05-14T12:47:50;2.73;;;1.80;;
6987;SDS011;3534;49.960;8.018;2023-05-14T12:50:17;2.00;;;1.87;;
6987;SDS011;3534;49.960;8.018;2023-05-14T12:52:45;2.53;;;2.33;;
6987;SDS011;3534;49.960;8.018;2023-05-14T12:55:11;2.37;;;2.13;;
6987;SDS011;3534;49.960;8.018;2023-05-14T12:57:40;3.90;;;1.90;;
6987;SDS011;3534;49.960;8.018;2023-05-14T13:00:07;2.43;;;2.03;;
6987;SDS011;3534;49.960;8.018;2023-05-14T13:02:35;2.00;;;1.83;;
6987;SDS011;3534;49.960;8.018;2023-05-14T13:05:02;2.10;;;1.90;;
6987;SDS011;3534;49.960;8.018;2023-05-14T13:07:29;3.00;;;2.20;;
6987;SDS011;3534;49.960;8.018;2023-05-14T13:09:56;3.93;;;2.40;;
6987;SDS011;3534;49.960;8.018;2023-05-14T13:12:23;7.67;;;2.10;;
6987;SDS011;3534;49.960;8.018;2023-05-14T13:14:51;6.83;;;2.10;;
6987;SDS011;3534;49.960;8.018;2023-05-14T13:17:18;2.43;;;2.07;;
6987;SDS011;3534;49.960;8.018;2023-05-14T13:19:45;3.47;;;1.90;;
6987;SDS011;3534;49.960;8.018;2023-05-14T13:22:11;2.10;;;2.00;;
6987;SDS011;3534;49.960;8.018;2023-05-14T13:24:38;2.20;;;2.00;;
6987;SDS011;3534;49.960;8.018;2023-05-14T13:27:05;2.50;;;1.83;;
6987;SDS011;3534;49.960;8.018;2023-05-14T13:29:32;3.40;;;2.10;;
6987;SDS011;3534;49.960;8.018;2023-05-14T13:32:00;3.70;;;2.00;;
6987;SDS011;3534;49.960;8.018;2023-05-14T13:34:26;2.43;;;1.90;;
6987;SDS011;3534;49.960;8.018;2023-05-14T13:36:53;2.40;;;2.03;;
6987;SDS011;3534;49.960;8.018;2023-05-14T13:39:20;3.13;;;1.87;;
6987;SDS011;3534;49.960;8.018;2023-05-14T13:41:50;3.90;;;1.40;;
6987;SDS011;3534;49.960;8.018;2023-05-14T13:44:17;2.33;;;2.07;;
6987;SDS011;3534;49.960;8.018;2023-05-14T13:46:44;2.20;;;2.00;;
6987;SDS011;3534;49.960;8.018;2023-05-14T13:49:12;1.90;;;1.80;;
6987;SDS011;3534;49.960;8.018;2023-05-14T13:51:38;1.83;;;1.60;;
6987;SDS011;3534;49.960;8.018;2023-05-14T13:54:05;2.60;;;1.60;;
6987;SDS011;3534;49.960;8.018;2023-05-14T13:56:32;2.20;;;1.80;;
6987;SDS011;3534;49.960;8.018;2023-05-14T13:58:58;1.80;;;1.70;;
6987;SDS011;3534;49.960;8.018;2023-05-14T14:01:26;5.10;;;2.13;;
6987;SDS011;3534;49.960;8.018;2023-05-14T14:03:54;2.60;;;2.40;;
6987;SDS011;3534;49.960;8.018;2023-05-14T14:06:22;2.53;;;1.80;;
6987;SDS011;3534;49.960;8.018;2023-05-14T14:08:51;1.97;;;1.83;;
6987;SDS011;3534;49.960;8.018;2023-05-14T14:11:17;2.00;;;1.90;;
6987;SDS011;3534;49.960;8.018;2023-05-14T14:13:44;2.10;;;1.73;;
6987;SDS011;3534;49.960;8.018;2023-05-14T14:16:11;2.20;;;1.90;;
6987;SDS011;3534;49.960;8.018;2023-05-14T14:18:38;2.30;;;2.10;;
6987;SDS011;3534;49.960;8.018;2023-05-14T14:21:06;1.90;;;1.80;;
6987;SDS011;3534;49.960;8.018;2023-05-14T14:23:35;3.43;;;1.90;;
6987;SDS011;3534;49.960;8.018;2023-05-14T14:26:01;2.33;;;2.13;;
6987;SDS011;3534;49.960;8.018;2023-05-14T14:28:28;4.40;;;1.70;;
6987;SDS011;3534;49.960;8.018;2023-05-14T14:30:55;2.57;;;1.73;;
6987;SDS011;3534;49.960;8.018;2023-05-14T14:33:22;4.40;;;1.80;;
6987;SDS011;3534;49.960;8.018;2023-05-14T14:35:48;6.90;;;2.20;;
6987;SDS011;3534;49.960;8.018;2023-05-14T14:38:15;1.70;;;1.60;;
6987;SDS011;3534;49.960;8.018;2023-05-14T14:40:43;1.73;;;1.63;;
6987;SDS011;3534;49.960;8.018;2023-05-14T14:43:10;1.98;;;1.35;;
6987;SDS011;3534;49.960;8.018;2023-05-14T14:45:37;2.55;;;1.40;;
6987;SDS011;3534;49.960;8.018;2023-05-14T14:48:23;2.58;;;1.60;;
6987;SDS011;3534;49.960;8.018;2023-05-14T14:50:52;1.60;;;1.50;;
6987;SDS011;3534;49.960;8.018;2023-05-14T14:53:18;1.73;;;1.52;;
6987;SDS011;3534;49.960;8.018;2023-05-14T14:55:47;1.30;;;1.13;;
6987;SDS011;3534;49.960;8.018;2023-05-14T14:58:14;2.35;;;1.40;;
6987;SDS011;3534;49.960;8.018;2023-05-14T15:00:40;1.58;;;1.35;;
6987;SDS011;3534;49.960;8.018;2023-05-14T15:03:08;1.20;;;1.10;;
6987;SDS011;3534;49.960;8.018;2023-05-14T15:05:34;1.80;;;1.40;;
6987;SDS011;3534;49.960;8.018;2023-05-14T15:08:01;1.80;;;1.40;;
6987;SDS011;3534;49.960;8.018;2023-05-14T15:10:28;1.50;;;1.35;;
6987;SDS011;3534;49.960;8.018;2023-05-14T15:12:58;1.33;;;1.20;;
6987;SDS011;3534;49.960;8.018;2023-05-14T15:15:25;1.38;;;1.27;;
6987;SDS011;3534;49.960;8.018;2023-05-14T15:17:51;1.77;;;1.67;;
6987;SDS011;3534;49.960;8.018;2023-05-14T15:20:18;2.17;;;1.20;;
6987;SDS011;3534;49.960;8.018;2023-05-14T15:22:45;1.35;;;1.15;;
6987;SDS011;3534;49.960;8.018;2023-05-14T15:25:13;1.67;;;1.45;;